createdAt,value
2023-02-22T00:01:07.428Z,26.10
2023-02-22T00:03:34.986Z,26.60
2023-02-22T00:06:05.014Z,22.67
2023-02-22T00:08:37.236Z,19.75
2023-02-22T00:11:10.781Z,18.10
2023-02-22T00:13:38.999Z,25.98
2023-02-22T00:16:06.664Z,18.65
2023-02-22T00:18:33.611Z,17.70
2023-02-22T00:21:01.455Z,18.38
2023-02-22T00:23:31.954Z,17.73
2023-02-22T00:26:01.129Z,20.67
2023-02-22T00:30:55.470Z,20.13
2023-02-22T00:33:23.096Z,20.38
2023-02-22T00:35:50.283Z,23.40
2023-02-22T00:38:19.571Z,20.38
2023-02-22T00:40:46.666Z,18.95
2023-02-22T00:43:14.215Z,19.90
2023-02-22T00:45:41.839Z,18.90
2023-02-22T00:48:10.216Z,20.65
2023-02-22T00:50:37.915Z,21.95
2023-02-22T00:53:07.275Z,23.02
2023-02-22T00:55:37.158Z,22.60
2023-02-22T00:58:06.277Z,16.33
2023-02-22T01:00:40.402Z,20.33
2023-02-22T01:03:10.782Z,20.13
2023-02-22T01:05:40.690Z,19.20
2023-02-22T01:08:10.767Z,22.10
2023-02-22T01:10:39.766Z,18.85
2023-02-22T01:15:45.101Z,22.35
2023-02-22T01:18:12.960Z,24.08
2023-02-22T01:20:40.512Z,22.25
2023-02-22T01:23:08.283Z,24.42
2023-02-22T01:25:36.287Z,19.55
2023-02-22T01:28:05.082Z,26.63
2023-02-22T01:30:35.142Z,24.85
2023-02-22T01:33:04.828Z,26.00
2023-02-22T01:35:40.810Z,25.58
2023-02-22T01:38:09.745Z,23.70
2023-02-22T01:40:41.850Z,27.75
2023-02-22T01:43:29.975Z,18.38
2023-02-22T01:46:04.315Z,21.92
2023-02-22T01:48:44.852Z,25.25
2023-02-22T01:51:37.476Z,19.80
2023-02-22T01:54:20.073Z,23.73
2023-02-22T01:57:18.085Z,23.63
2023-02-22T01:59:50.150Z,19.85
2023-02-22T02:02:19.058Z,18.98
2023-02-22T02:04:46.278Z,23.80
2023-02-22T02:07:17.966Z,20.75
2023-02-22T02:09:50.689Z,23.38
2023-02-22T02:12:23.218Z,20.58
2023-02-22T02:14:51.401Z,22.13
2023-02-22T02:17:23.119Z,25.23
2023-02-22T02:20:12.874Z,23.48
2023-02-22T02:22:56.476Z,16.55
2023-02-22T02:25:41.416Z,21.65
2023-02-22T02:28:42.419Z,22.38
2023-02-22T02:31:34.135Z,17.73
2023-02-22T02:34:26.784Z,22.77
2023-02-22T02:37:18.973Z,22.30
2023-02-22T02:40:00.426Z,20.20
2023-02-22T02:42:38.020Z,21.27
2023-02-22T02:45:30.642Z,19.92
2023-02-22T02:48:01.286Z,22.13
2023-02-22T02:50:43.051Z,23.00
2023-02-22T02:53:11.258Z,24.25
2023-02-22T02:55:38.246Z,22.65
2023-02-22T02:58:09.023Z,22.73
2023-02-22T03:04:06.963Z,19.23
2023-02-22T03:07:26.628Z,18.33
2023-02-22T03:10:24.794Z,22.58
2023-02-22T03:13:13.591Z,23.90
2023-02-22T03:16:11.176Z,19.85
2023-02-22T03:19:00.826Z,22.30
2023-02-22T03:21:45.116Z,20.38
2023-02-22T03:24:31.390Z,23.88
2023-02-22T03:27:43.725Z,30.48
2023-02-22T03:30:19.981Z,21.65
2023-02-22T03:32:52.923Z,32.75
2023-02-22T03:35:28.328Z,24.05
2023-02-22T03:38:00.476Z,31.48
2023-02-22T03:40:37.982Z,29.13
2023-02-22T03:43:17.493Z,28.52
2023-02-22T03:45:48.845Z,28.02
2023-02-22T03:48:47.111Z,26.60
2023-02-22T03:51:17.029Z,21.88
2023-02-22T03:53:49.578Z,22.85
2023-02-22T03:56:28.919Z,26.58
2023-02-22T03:58:56.173Z,26.40
2023-02-22T04:01:23.790Z,23.83
2023-02-22T04:03:50.838Z,26.55
2023-02-22T04:06:17.968Z,24.80
2023-02-22T04:08:45.566Z,28.88
2023-02-22T04:11:12.722Z,28.88
2023-02-22T04:13:41.082Z,26.17
2023-02-22T04:16:08.077Z,23.45
2023-02-22T04:18:36.170Z,23.45
2023-02-22T04:21:04.588Z,29.17
2023-02-22T04:23:38.935Z,27.90
2023-02-22T04:26:05.934Z,29.25
2023-02-22T04:28:33.123Z,32.78
2023-02-22T04:31:09.636Z,32.47
2023-02-22T04:33:37.664Z,25.50
2023-02-22T04:36:04.938Z,29.52
2023-02-22T04:38:34.314Z,39.00
2023-02-22T04:41:01.248Z,32.60
2023-02-22T04:43:28.182Z,35.20
2023-02-22T04:46:04.472Z,36.95
2023-02-22T04:48:31.977Z,35.40
2023-02-22T04:50:58.882Z,32.75
2023-02-22T04:53:28.183Z,31.67
2023-02-22T04:55:56.322Z,30.38
2023-02-22T04:58:23.494Z,31.48
2023-02-22T05:00:50.425Z,36.45
2023-02-22T05:03:17.292Z,30.20
2023-02-22T05:05:44.480Z,31.77
2023-02-22T05:08:11.493Z,33.00
2023-02-22T05:10:38.372Z,33.08
2023-02-22T05:13:06.155Z,35.22
2023-02-22T05:15:33.153Z,30.40
2023-02-22T05:18:00.231Z,32.95
2023-02-22T05:20:30.988Z,32.15
2023-02-22T05:23:00.560Z,38.28
2023-02-22T05:25:29.013Z,33.10
2023-02-22T05:28:10.781Z,30.25
2023-02-22T05:30:41.313Z,33.13
2023-02-22T05:33:09.626Z,35.67
2023-02-22T05:35:39.545Z,31.85
2023-02-22T05:38:07.512Z,32.20
2023-02-22T05:40:35.124Z,30.63
2023-02-22T05:43:02.904Z,29.60
2023-02-22T05:45:30.312Z,38.20
2023-02-22T05:47:57.258Z,29.85
2023-02-22T05:50:24.924Z,35.08
2023-02-22T05:52:52.440Z,35.78
2023-02-22T05:55:23.875Z,37.60
2023-02-22T05:57:52.467Z,37.35
2023-02-22T06:00:29.305Z,47.70
2023-02-22T06:02:59.404Z,39.67
2023-02-22T06:05:27.578Z,34.22
2023-02-22T06:07:54.981Z,32.38
2023-02-22T06:10:22.127Z,33.85
2023-02-22T06:12:50.782Z,35.47
2023-02-22T06:15:19.838Z,31.83
2023-02-22T06:20:18.043Z,34.55
2023-02-22T06:22:48.626Z,42.72
2023-02-22T06:25:20.445Z,38.88
2023-02-22T06:27:47.775Z,35.88
2023-02-22T06:30:17.883Z,42.60
2023-02-22T06:32:44.793Z,36.20
2023-02-22T06:35:11.737Z,41.25
2023-02-22T06:37:40.110Z,42.50
2023-02-22T06:40:07.384Z,41.75
2023-02-22T06:42:34.479Z,40.80
2023-02-22T06:45:01.458Z,37.55
2023-02-22T06:47:28.639Z,34.88
2023-02-22T06:49:57.405Z,40.72
2023-02-22T06:52:25.062Z,31.00
2023-02-22T06:54:52.540Z,36.45
2023-02-22T06:57:19.580Z,38.30
2023-02-22T06:59:46.535Z,35.28
2023-02-22T07:02:14.069Z,36.70
2023-02-22T07:04:43.293Z,34.30
2023-02-22T07:07:10.933Z,37.60
2023-02-22T07:09:37.775Z,38.03
2023-02-22T07:12:05.824Z,40.33
2023-02-22T07:14:32.731Z,37.25
2023-02-22T07:16:59.673Z,37.85
2023-02-22T07:19:26.610Z,42.25
2023-02-22T07:21:59.236Z,34.28
2023-02-22T07:24:28.458Z,39.75
2023-02-22T07:26:55.780Z,37.17
2023-02-22T07:29:23.018Z,39.13
2023-02-22T07:31:50.508Z,38.40
2023-02-22T07:34:17.485Z,36.83
2023-02-22T07:36:44.372Z,36.97
2023-02-22T07:39:11.276Z,40.42
2023-02-22T07:41:38.237Z,33.53
2023-02-22T07:44:14.371Z,37.20
2023-02-22T07:46:41.294Z,39.53
2023-02-22T07:49:08.302Z,38.10
2023-02-22T07:51:35.215Z,36.45
2023-02-22T07:54:02.049Z,35.15
2023-02-22T07:56:28.925Z,42.08
2023-02-22T07:58:55.842Z,37.90
2023-02-22T08:01:22.805Z,37.65
2023-02-22T08:03:49.925Z,38.25
2023-02-22T08:06:16.844Z,32.10
2023-02-22T08:08:43.761Z,39.33
2023-02-22T08:11:10.694Z,35.92
2023-02-22T08:13:39.621Z,31.38
2023-02-22T08:16:06.592Z,32.75
2023-02-22T08:18:33.677Z,35.60
2023-02-22T08:21:00.785Z,35.42
2023-02-22T08:23:27.816Z,32.30
2023-02-22T08:25:55.948Z,33.92
2023-02-22T08:28:25.049Z,31.75
2023-02-22T08:30:52.351Z,34.72
2023-02-22T08:33:19.949Z,26.08
2023-02-22T08:35:49.724Z,33.78
2023-02-22T08:38:32.255Z,29.88
2023-02-22T08:40:59.163Z,27.42
2023-02-22T08:43:26.332Z,26.63
2023-02-22T08:45:55.083Z,29.38
2023-02-22T08:48:24.163Z,26.48
2023-02-22T08:50:51.155Z,28.27
2023-02-22T08:53:19.019Z,24.65
2023-02-22T08:55:46.237Z,26.15
2023-02-22T08:58:14.102Z,33.88
2023-02-22T09:00:43.235Z,29.95
2023-02-22T09:03:14.114Z,23.92
2023-02-22T09:05:43.396Z,27.48
2023-02-22T09:08:10.832Z,22.85
2023-02-22T09:10:38.164Z,23.63
2023-02-22T09:13:05.696Z,21.83
2023-02-22T09:15:37.710Z,24.80
2023-02-22T09:18:09.872Z,25.95
2023-02-22T09:20:37.198Z,22.42
2023-02-22T09:23:06.953Z,26.88
2023-02-22T09:25:34.289Z,22.13
2023-02-22T09:28:01.500Z,22.45
2023-02-22T09:30:35.055Z,23.58
2023-02-22T09:33:09.862Z,24.05
2023-02-22T09:35:42.217Z,22.42
2023-02-22T09:38:10.365Z,22.35
2023-02-22T09:40:46.169Z,21.05
2023-02-22T09:43:57.961Z,20.55
2023-02-22T09:46:45.660Z,22.65
2023-02-22T09:49:15.408Z,23.52
2023-02-22T09:51:53.788Z,22.20
2023-02-22T09:54:34.290Z,20.45
2023-02-22T09:57:08.664Z,20.33
2023-02-22T09:59:46.234Z,18.90
2023-02-22T10:02:43.389Z,24.83
2023-02-22T10:05:20.088Z,20.08
2023-02-22T10:08:05.994Z,21.00
2023-02-22T10:10:39.222Z,15.85
2023-02-22T10:13:52.193Z,20.20
2023-02-22T10:17:06.341Z,16.95
2023-02-22T10:20:14.827Z,19.05
2023-02-22T10:22:46.936Z,17.92
2023-02-22T10:25:19.302Z,20.33
2023-02-22T10:28:19.953Z,19.42
2023-02-22T10:31:09.626Z,20.00
2023-02-22T10:34:05.701Z,23.42
2023-02-22T10:36:34.383Z,20.95
2023-02-22T10:39:27.032Z,15.95
2023-02-22T10:42:05.737Z,19.63
2023-02-22T10:44:37.517Z,18.92
2023-02-22T10:47:10.690Z,18.50
2023-02-22T10:49:56.278Z,18.35
2023-02-22T10:52:31.264Z,17.40
2023-02-22T10:55:14.090Z,16.70
2023-02-22T10:57:46.185Z,21.23
2023-02-22T11:00:30.413Z,16.63
2023-02-22T11:03:01.477Z,20.92
2023-02-22T11:05:39.988Z,16.58
2023-02-22T11:08:40.991Z,19.63
2023-02-22T11:11:28.834Z,19.50
2023-02-22T11:13:57.248Z,17.75
2023-02-22T11:16:30.559Z,16.63
2023-02-22T11:19:31.928Z,17.75
2023-02-22T11:22:12.300Z,16.48
2023-02-22T11:24:57.492Z,20.88
2023-02-22T11:27:31.838Z,17.63
2023-02-22T11:30:17.445Z,18.08
2023-02-22T11:32:52.252Z,14.55
2023-02-22T11:35:28.047Z,17.13
2023-02-22T11:38:10.908Z,17.70
2023-02-22T11:40:40.316Z,17.40
2023-02-22T11:43:19.503Z,18.95
2023-02-22T11:46:02.138Z,16.33
2023-02-22T11:48:34.750Z,17.52
2023-02-22T11:51:14.110Z,16.73
2023-02-22T11:54:00.122Z,17.15
2023-02-22T11:56:40.732Z,15.32
2023-02-22T11:59:47.169Z,17.42
2023-02-22T12:02:34.170Z,14.65
2023-02-22T12:05:24.408Z,13.40
2023-02-22T12:08:25.364Z,15.43
2023-02-22T12:11:10.041Z,16.67
2023-02-22T12:14:05.697Z,15.00
2023-02-22T12:17:08.979Z,13.82
2023-02-22T12:19:46.324Z,14.93
2023-02-22T12:22:37.911Z,18.48
2023-02-22T12:25:24.921Z,18.00
2023-02-22T12:28:25.591Z,17.08
2023-02-22T12:31:11.566Z,18.45
2023-02-22T12:34:09.525Z,13.90
2023-02-22T12:36:53.215Z,13.90
2023-02-22T12:39:53.710Z,14.18
2023-02-22T12:43:13.672Z,17.67
2023-02-22T12:46:22.235Z,14.10
2023-02-22T12:49:36.625Z,15.45
2023-02-22T12:52:46.738Z,13.55
2023-02-22T12:55:31.790Z,12.43
2023-02-22T12:58:31.211Z,12.57
2023-02-22T13:01:06.985Z,13.60
2023-02-22T13:03:41.245Z,12.63
2023-02-22T13:07:04.943Z,11.80
2023-02-22T13:10:07.218Z,13.30
2023-02-22T13:13:23.919Z,12.70
2023-02-22T13:16:10.233Z,10.40
2023-02-22T13:18:52.394Z,14.60
2023-02-22T13:21:47.775Z,10.20
2023-02-22T13:24:25.145Z,11.10
2023-02-22T13:27:16.951Z,11.25
2023-02-22T13:29:52.255Z,11.80
2023-02-22T13:32:32.146Z,9.35
2023-02-22T13:35:11.948Z,11.07
2023-02-22T13:38:16.131Z,11.00
2023-02-22T13:41:09.883Z,12.32
2023-02-22T13:44:34.050Z,10.40
2023-02-22T13:50:43.595Z,12.15
2023-02-22T13:53:23.299Z,10.50
2023-02-22T13:55:57.032Z,10.80
2023-02-22T13:58:25.025Z,8.75
2023-02-22T14:00:55.816Z,9.68
2023-02-22T14:03:24.047Z,9.82
2023-02-22T14:05:57.629Z,10.30
2023-02-22T14:08:31.552Z,9.93
2023-02-22T14:11:00.729Z,9.80
2023-02-22T14:13:55.152Z,5.97
2023-02-22T14:16:28.680Z,7.18
2023-02-22T14:19:23.615Z,9.45
2023-02-22T14:22:06.733Z,7.07
2023-02-22T14:24:48.001Z,7.95
2023-02-22T14:27:17.758Z,6.90
2023-02-22T14:30:00.493Z,7.05
2023-02-22T14:32:33.388Z,7.93
2023-02-22T14:35:30.080Z,7.25
2023-02-22T14:40:36.208Z,6.75
2023-02-22T14:43:22.736Z,8.52
2023-02-22T14:45:56.418Z,6.32
2023-02-22T14:48:43.080Z,6.57
2023-02-22T14:51:25.115Z,7.53
2023-02-22T14:54:13.308Z,5.63
2023-02-22T14:56:59.824Z,7.38
2023-02-22T14:59:28.563Z,7.85
2023-02-22T15:02:13.690Z,6.22
2023-02-22T15:04:44.114Z,11.82
2023-02-22T15:07:31.841Z,10.13
2023-02-22T15:10:22.084Z,9.48
2023-02-22T15:13:12.452Z,6.60
2023-02-22T15:15:48.266Z,7.93
2023-02-22T15:18:34.112Z,7.35
2023-02-22T15:21:26.005Z,6.25
2023-02-22T15:23:56.991Z,9.43
2023-02-22T15:26:59.002Z,7.63
2023-02-22T15:29:37.286Z,6.40
2023-02-22T15:32:33.945Z,6.88
2023-02-22T15:35:28.326Z,5.55
2023-02-22T15:38:32.240Z,5.53
2023-02-22T15:41:08.322Z,6.35
2023-02-22T15:43:35.347Z,5.40
2023-02-22T15:46:02.405Z,6.55
2023-02-22T15:48:31.580Z,5.45
2023-02-22T15:51:17.922Z,6.85
2023-02-22T15:53:48.101Z,7.63
2023-02-22T15:56:30.382Z,7.25
2023-02-22T15:59:12.581Z,8.10
2023-02-22T16:01:43.568Z,6.50
2023-02-22T16:04:22.794Z,7.50
2023-02-22T16:06:52.172Z,8.30
2023-02-22T16:09:30.309Z,7.45
2023-02-22T16:12:22.068Z,5.85
2023-02-22T16:14:50.017Z,8.57
2023-02-22T16:17:37.714Z,7.93
2023-02-22T16:20:14.355Z,14.55
2023-02-22T16:22:49.154Z,8.82
2023-02-22T16:25:27.318Z,8.38
2023-02-22T16:28:01.436Z,7.85
2023-02-22T16:30:34.216Z,8.82
2023-02-22T16:33:06.657Z,8.77
2023-02-22T16:35:35.637Z,10.55
2023-02-22T16:38:07.599Z,11.20
2023-02-22T16:40:52.411Z,10.63
2023-02-22T16:43:24.897Z,9.38
2023-02-22T16:45:53.112Z,7.88
2023-02-22T16:48:23.057Z,7.93
2023-02-22T16:50:52.102Z,10.90
2023-02-22T16:53:23.367Z,8.38
2023-02-22T16:55:57.536Z,8.38
2023-02-22T16:58:28.727Z,8.43
2023-02-22T17:01:07.091Z,9.95
2023-02-22T17:03:34.038Z,8.70
2023-02-22T17:06:01.260Z,8.82
2023-02-22T17:08:28.320Z,9.23
2023-02-22T17:10:58.077Z,12.20
2023-02-22T17:13:27.529Z,9.40
2023-02-22T17:15:55.099Z,10.70
2023-02-22T17:18:28.338Z,11.05
2023-02-22T17:20:55.606Z,12.63
2023-02-22T17:23:24.188Z,17.05
2023-02-22T17:25:56.216Z,14.65
2023-02-22T17:28:25.173Z,19.90
2023-02-22T17:33:35.272Z,13.77
2023-02-22T17:36:05.021Z,16.17
2023-02-22T17:38:32.323Z,11.38
2023-02-22T17:41:01.243Z,14.90
2023-02-22T17:43:29.011Z,11.65
2023-02-22T17:45:56.502Z,13.85
2023-02-22T17:48:24.335Z,11.73
2023-02-22T17:50:52.557Z,11.43
2023-02-22T17:53:24.884Z,9.18
2023-02-22T17:55:52.231Z,10.98
2023-02-22T17:58:19.498Z,12.57
2023-02-22T18:00:50.390Z,11.75
2023-02-22T18:03:25.851Z,10.68
2023-02-22T18:05:57.645Z,11.93
2023-02-22T18:08:27.214Z,10.25
2023-02-22T18:10:58.085Z,16.25
2023-02-22T18:13:27.287Z,9.50
2023-02-22T18:16:00.098Z,9.95
2023-02-22T18:18:28.840Z,12.57
2023-02-22T18:20:59.487Z,12.68
2023-02-22T18:23:29.143Z,10.25
2023-02-22T18:26:10.216Z,16.27
2023-02-22T18:28:48.635Z,10.27
2023-02-22T18:31:19.820Z,12.25
2023-02-22T18:33:51.268Z,12.15
2023-02-22T18:36:24.078Z,13.05
2023-02-22T18:38:54.599Z,14.70
2023-02-22T18:41:26.900Z,17.23
2023-02-22T18:43:55.474Z,11.23
2023-02-22T18:46:24.966Z,13.35
2023-02-22T18:48:55.091Z,11.43
2023-02-22T18:51:22.956Z,12.73
2023-02-22T18:53:54.817Z,15.43
2023-02-22T18:56:22.244Z,11.60
2023-02-22T18:58:54.382Z,11.07
2023-02-22T19:01:22.478Z,12.73
2023-02-22T19:03:49.614Z,14.13
2023-02-22T19:06:17.484Z,11.15
2023-02-22T19:08:46.204Z,12.77
2023-02-22T19:11:17.792Z,13.20
2023-02-22T19:13:51.503Z,14.52
2023-02-22T19:16:22.008Z,12.48
2023-02-22T19:18:52.389Z,11.73
2023-02-22T19:21:20.959Z,17.25
2023-02-22T19:23:49.089Z,15.27
2023-02-22T19:26:26.113Z,15.05
2023-02-22T19:28:55.852Z,16.27
2023-02-22T19:31:33.725Z,14.18
2023-02-22T19:34:09.057Z,12.68
2023-02-22T19:36:46.365Z,16.08
2023-02-22T19:39:19.692Z,12.88
2023-02-22T19:41:46.927Z,14.48
2023-02-22T19:44:13.922Z,18.15
2023-02-22T19:46:40.875Z,13.73
2023-02-22T19:49:08.086Z,14.88
2023-02-22T19:51:35.006Z,14.07
2023-02-22T19:54:08.447Z,14.20
2023-02-22T19:56:35.672Z,12.95
2023-02-22T19:59:13.417Z,13.77
2023-02-22T20:01:44.286Z,17.38
2023-02-22T20:04:18.643Z,13.93
2023-02-22T20:06:46.894Z,17.20
2023-02-22T20:09:23.927Z,16.40
2023-02-22T20:11:54.106Z,16.95
2023-02-22T20:14:26.004Z,13.70
2023-02-22T20:16:55.039Z,12.05
2023-02-22T20:21:55.941Z,15.38
2023-02-22T20:24:24.189Z,15.32
2023-02-22T20:26:55.643Z,15.50
2023-02-22T20:29:32.417Z,13.32
2023-02-22T20:32:01.854Z,17.52
2023-02-22T20:34:32.338Z,22.15
2023-02-22T20:37:01.106Z,16.50
2023-02-22T20:39:28.960Z,19.27
2023-02-22T20:41:55.912Z,18.45
2023-02-22T20:44:22.891Z,14.77
2023-02-22T20:46:49.827Z,14.60
2023-02-22T20:49:21.305Z,15.48
2023-02-22T20:51:49.126Z,15.52
2023-02-22T20:54:17.727Z,16.88
2023-02-22T20:56:47.114Z,16.27
2023-02-22T20:59:19.053Z,15.60
2023-02-22T21:01:50.078Z,16.17
2023-02-22T21:04:17.541Z,17.10
2023-02-22T21:06:46.666Z,14.82
2023-02-22T21:09:20.439Z,17.80
2023-02-22T21:11:47.480Z,16.33
2023-02-22T21:14:18.757Z,17.55
2023-02-22T21:16:49.176Z,20.23
2023-02-22T21:19:27.123Z,16.40
2023-02-22T21:22:01.402Z,16.50
2023-02-22T21:24:29.556Z,15.32
2023-02-22T21:26:58.971Z,17.88
2023-02-22T21:29:28.154Z,13.75
2023-02-22T21:31:55.648Z,15.80
2023-02-22T21:34:22.847Z,15.60
2023-02-22T21:36:50.578Z,15.93
2023-02-22T21:39:20.677Z,16.35
2023-02-22T21:41:51.717Z,14.50
2023-02-22T21:44:19.152Z,15.57
2023-02-22T21:46:50.733Z,13.98
2023-02-22T21:49:22.610Z,17.70
2023-02-22T21:51:51.596Z,17.20
2023-02-22T21:56:46.143Z,18.55
2023-02-22T21:59:20.969Z,15.90
2023-02-22T22:01:51.093Z,18.52
2023-02-22T22:04:22.206Z,19.58
2023-02-22T22:06:52.207Z,23.95
2023-02-22T22:09:23.341Z,21.63
2023-02-22T22:11:53.873Z,37.80
2023-02-22T22:14:24.202Z,33.85
2023-02-22T22:16:55.873Z,28.83
2023-02-22T22:19:23.118Z,20.05
2023-02-22T22:21:54.009Z,18.63
2023-02-22T22:24:22.780Z,15.27
2023-02-22T22:26:54.502Z,17.60
2023-02-22T22:29:24.654Z,16.92
2023-02-22T22:31:52.315Z,15.18
2023-02-22T22:34:19.552Z,15.52
2023-02-22T22:36:47.486Z,15.82
2023-02-22T22:39:14.356Z,19.15
2023-02-22T22:41:45.450Z,18.67
2023-02-22T22:44:15.296Z,16.88
2023-02-22T22:46:48.945Z,26.20
2023-02-22T22:49:16.753Z,16.77
2023-02-22T22:51:47.302Z,19.58
2023-02-22T22:54:14.527Z,21.77
2023-02-22T22:56:41.449Z,22.75
2023-02-22T22:59:10.389Z,19.42
2023-02-22T23:01:44.273Z,19.35
2023-02-22T23:04:16.377Z,20.70
2023-02-22T23:06:52.635Z,17.95
2023-02-22T23:09:29.609Z,24.02
2023-02-22T23:12:17.579Z,23.15
2023-02-22T23:14:45.716Z,22.33
2023-02-22T23:17:30.797Z,25.67
2023-02-22T23:19:57.838Z,22.23
2023-02-22T23:22:24.695Z,25.10
2023-02-22T23:24:51.587Z,25.92
2023-02-22T23:27:18.995Z,22.85
2023-02-22T23:29:46.582Z,21.98
2023-02-22T23:32:14.291Z,22.90
2023-02-22T23:34:41.690Z,22.65
2023-02-22T23:37:10.519Z,27.50
2023-02-22T23:42:04.835Z,21.85
2023-02-22T23:44:32.444Z,27.10
2023-02-22T23:46:59.490Z,29.63
2023-02-22T23:49:38.835Z,24.05
2023-02-22T23:52:07.925Z,25.58
2023-02-22T23:54:36.205Z,26.77
2023-02-22T23:57:04.831Z,28.52
2023-02-22T23:59:33.465Z,31.15
